createdAt,value
2022-10-02T00:02:18.270Z,14.20
2022-10-02T00:04:52.841Z,14.19
2022-10-02T00:07:26.136Z,14.19
2022-10-02T00:09:58.767Z,14.21
2022-10-02T00:12:31.335Z,14.19
2022-10-02T00:15:06.984Z,14.23
2022-10-02T00:17:40.455Z,14.26
2022-10-02T00:20:14.319Z,14.32
2022-10-02T00:22:51.905Z,14.38
2022-10-02T00:25:26.906Z,14.44
2022-10-02T00:28:15.697Z,14.45
2022-10-02T00:30:57.315Z,14.42
2022-10-02T00:33:34.573Z,14.48
2022-10-02T00:36:11.991Z,14.45
2022-10-02T00:38:49.201Z,14.44
2022-10-02T00:41:50.742Z,14.47
2022-10-02T00:44:39.582Z,14.48
2022-10-02T00:47:15.901Z,14.53
2022-10-02T00:49:59.716Z,14.52
2022-10-02T00:52:43.051Z,14.55
2022-10-02T00:55:39.651Z,14.57
2022-10-02T00:58:27.624Z,14.51
2022-10-02T01:01:03.963Z,14.51
2022-10-02T01:03:38.117Z,14.53
2022-10-02T01:06:06.914Z,14.57
2022-10-02T01:08:35.758Z,14.62
2022-10-02T01:11:04.257Z,14.59
2022-10-02T01:13:35.254Z,14.66
2022-10-02T01:16:05.846Z,14.70
2022-10-02T01:18:34.182Z,14.66
2022-10-02T01:21:07.432Z,14.66
2022-10-02T01:23:42.969Z,14.68
2022-10-02T01:26:12.789Z,14.64
2022-10-02T01:28:41.174Z,14.59
2022-10-02T01:31:14.639Z,14.55
2022-10-02T01:33:45.659Z,14.53
2022-10-02T01:36:16.123Z,14.52
2022-10-02T01:38:45.484Z,14.56
2022-10-02T01:41:15.131Z,14.60
2022-10-02T01:43:47.983Z,14.62
2022-10-02T01:46:29.001Z,14.58
2022-10-02T01:49:07.420Z,14.54
2022-10-02T01:51:54.366Z,14.54
2022-10-02T01:54:34.732Z,14.58
2022-10-02T01:57:14.070Z,14.59
2022-10-02T01:59:51.311Z,14.56
2022-10-02T02:02:26.571Z,14.58
2022-10-02T02:04:59.862Z,14.62
2022-10-02T02:07:35.604Z,14.64
2022-10-02T02:10:13.878Z,14.66
2022-10-02T02:12:46.705Z,14.73
2022-10-02T02:15:21.371Z,14.69
2022-10-02T02:17:55.729Z,14.68
2022-10-02T02:20:31.600Z,14.68
2022-10-02T02:23:06.763Z,14.65
2022-10-02T02:25:39.937Z,14.58
2022-10-02T02:28:12.946Z,14.56
2022-10-02T02:30:44.852Z,14.54
2022-10-02T02:33:20.974Z,14.54
2022-10-02T02:35:52.878Z,14.49
2022-10-02T02:38:27.700Z,14.52
2022-10-02T02:41:00.348Z,14.51
2022-10-02T02:43:33.579Z,14.52
2022-10-02T02:46:07.226Z,14.55
2022-10-02T02:48:41.069Z,14.55
2022-10-02T02:51:12.819Z,14.53
2022-10-02T02:53:46.923Z,14.49
2022-10-02T02:56:18.963Z,14.44
2022-10-02T02:58:52.661Z,14.52
2022-10-02T03:01:21.250Z,14.56
2022-10-02T03:03:49.517Z,14.58
2022-10-02T03:06:31.661Z,14.55
2022-10-02T03:09:01.024Z,14.52
2022-10-02T03:11:43.089Z,14.49
2022-10-02T03:14:38.367Z,14.47
2022-10-02T03:17:20.778Z,14.47
2022-10-02T03:19:53.361Z,14.44
2022-10-02T03:22:29.235Z,14.48
2022-10-02T03:25:03.854Z,14.50
2022-10-02T03:27:37.865Z,14.49
2022-10-02T03:30:10.150Z,14.44
2022-10-02T03:32:40.617Z,14.47
2022-10-02T03:35:13.225Z,14.49
2022-10-02T03:37:45.700Z,14.42
2022-10-02T03:40:13.935Z,14.36
2022-10-02T03:42:42.090Z,14.37
2022-10-02T03:45:23.087Z,14.38
2022-10-02T03:48:00.134Z,14.44
2022-10-02T03:50:30.749Z,14.49
2022-10-02T03:53:01.077Z,14.48
2022-10-02T03:55:33.879Z,14.49
2022-10-02T03:58:10.498Z,14.45
2022-10-02T04:00:44.407Z,14.48
2022-10-02T04:03:16.976Z,14.49
2022-10-02T04:05:51.196Z,14.48
2022-10-02T04:08:20.587Z,14.38
2022-10-02T04:10:53.013Z,14.33
2022-10-02T04:13:26.093Z,14.29
2022-10-02T04:16:03.587Z,14.28
2022-10-02T04:18:36.375Z,14.25
2022-10-02T04:21:10.913Z,14.19
2022-10-02T04:23:44.892Z,14.14
2022-10-02T04:26:18.932Z,14.11
2022-10-02T04:28:52.383Z,14.12
2022-10-02T04:31:22.032Z,14.08
2022-10-02T04:33:50.249Z,14.01
2022-10-02T04:36:34.948Z,13.98
2022-10-02T04:39:31.244Z,13.95
2022-10-02T04:42:15.744Z,13.91
2022-10-02T04:44:58.986Z,13.90
2022-10-02T04:47:49.826Z,13.83
2022-10-02T04:50:30.635Z,13.83
2022-10-02T04:53:24.399Z,13.83
2022-10-02T04:56:12.660Z,13.80
2022-10-02T04:59:05.018Z,13.76
2022-10-02T05:01:46.715Z,13.78
2022-10-02T05:04:40.160Z,13.75
2022-10-02T05:07:32.521Z,13.70
2022-10-02T05:10:06.484Z,13.70
2022-10-02T05:12:52.508Z,13.66
2022-10-02T05:15:35.009Z,13.63
2022-10-02T05:18:24.525Z,13.60
2022-10-02T05:21:17.043Z,13.52
2022-10-02T05:23:58.247Z,13.52
2022-10-02T05:26:39.338Z,13.53
2022-10-02T05:29:27.588Z,13.48
2022-10-02T05:32:17.287Z,13.43
2022-10-02T05:35:03.835Z,13.41
2022-10-02T05:37:49.304Z,13.39
2022-10-02T05:40:25.233Z,13.38
2022-10-02T05:43:02.387Z,13.40
2022-10-02T05:45:37.483Z,13.39
2022-10-02T05:48:13.609Z,13.37
2022-10-02T05:50:42.689Z,13.34
2022-10-02T05:53:26.513Z,13.36
2022-10-02T05:55:59.943Z,13.36
2022-10-02T05:58:33.898Z,13.35
2022-10-02T06:01:08.882Z,13.33
2022-10-02T06:03:43.557Z,13.33
2022-10-02T06:06:17.647Z,13.32
2022-10-02T06:08:51.923Z,13.32
2022-10-02T06:11:24.722Z,13.33
2022-10-02T06:13:58.777Z,13.35
2022-10-02T06:16:34.243Z,13.41
2022-10-02T06:19:08.987Z,13.50
2022-10-02T06:21:42.414Z,13.50
2022-10-02T06:24:17.677Z,13.62
2022-10-02T06:26:54.153Z,13.64
2022-10-02T06:29:27.421Z,13.68
2022-10-02T06:32:14.902Z,13.68
2022-10-02T06:34:47.140Z,13.67
2022-10-02T06:37:49.265Z,13.70
2022-10-02T06:40:43.605Z,13.73
2022-10-02T06:43:24.990Z,13.75
2022-10-02T06:46:03.509Z,13.73
2022-10-02T06:48:41.005Z,13.77
2022-10-02T06:51:19.526Z,13.79
2022-10-02T06:53:59.470Z,13.80
2022-10-02T06:56:45.423Z,13.83
2022-10-02T06:59:30.099Z,13.78
2022-10-02T07:02:06.558Z,13.81
2022-10-02T07:04:57.693Z,13.83
2022-10-02T07:07:49.351Z,13.83
2022-10-02T07:10:30.486Z,13.79
2022-10-02T07:13:19.311Z,13.81
2022-10-02T07:16:15.440Z,13.83
2022-10-02T07:18:58.758Z,13.83
2022-10-02T07:21:35.648Z,13.89
2022-10-02T07:24:18.549Z,13.93
2022-10-02T07:26:55.706Z,13.98
2022-10-02T07:29:37.760Z,14.03
2022-10-02T07:32:41.697Z,14.10
2022-10-02T07:35:25.747Z,14.13
2022-10-02T07:38:04.218Z,14.12
2022-10-02T07:40:38.624Z,14.14
2022-10-02T07:43:18.176Z,14.21
2022-10-02T07:45:53.984Z,14.28
2022-10-02T07:48:34.906Z,14.41
2022-10-02T07:51:32.365Z,14.44
2022-10-02T07:54:13.623Z,14.49
2022-10-02T07:56:42.753Z,14.47
2022-10-02T07:59:16.103Z,14.56
2022-10-02T08:01:47.629Z,14.63
2022-10-02T08:04:19.691Z,14.52
2022-10-02T08:06:49.103Z,14.55
2022-10-02T08:09:22.784Z,14.45
2022-10-02T08:11:57.916Z,14.57
2022-10-02T08:14:32.170Z,14.56
2022-10-02T08:17:23.215Z,14.51
2022-10-02T08:19:53.494Z,14.68
2022-10-02T08:22:26.645Z,14.68
2022-10-02T08:24:57.849Z,14.72
2022-10-02T08:27:30.465Z,14.69
2022-10-02T08:30:04.352Z,14.74
2022-10-02T08:32:36.870Z,14.81
2022-10-02T08:35:12.669Z,14.85
2022-10-02T08:37:52.398Z,14.88
2022-10-02T08:40:55.847Z,14.79
2022-10-02T08:44:00.033Z,14.82
2022-10-02T08:47:33.058Z,15.02
2022-10-02T08:50:30.108Z,15.14
2022-10-02T08:53:41.860Z,14.98
2022-10-02T08:56:27.693Z,15.06
2022-10-02T08:59:25.932Z,15.04
2022-10-02T09:02:37.466Z,15.06
2022-10-02T09:05:41.638Z,15.10
2022-10-02T09:08:40.987Z,15.02
2022-10-02T09:11:37.205Z,14.93
2022-10-02T09:14:43.656Z,14.98
2022-10-02T09:17:40.232Z,15.14
2022-10-02T09:20:45.715Z,15.27
2022-10-02T09:23:50.516Z,15.31
2022-10-02T09:26:27.123Z,15.36
2022-10-02T09:29:44.827Z,15.45
2022-10-02T09:32:43.444Z,15.59
2022-10-02T09:35:37.723Z,15.41
2022-10-02T09:38:44.838Z,15.61
2022-10-02T09:42:00.841Z,15.68
2022-10-02T09:45:01.922Z,15.55
2022-10-02T09:48:22.935Z,15.55
2022-10-02T09:51:26.544Z,15.55
2022-10-02T09:54:35.866Z,15.54
2022-10-02T09:57:43.543Z,15.38
2022-10-02T10:00:27.013Z,15.33
2022-10-02T10:03:36.563Z,15.38
2022-10-02T10:06:29.544Z,15.54
2022-10-02T10:09:40.555Z,15.74
2022-10-02T10:12:48.073Z,15.83
2022-10-02T10:16:11.810Z,15.76
2022-10-02T10:19:15.365Z,15.80
2022-10-02T10:22:17.358Z,15.86
2022-10-02T10:25:18.787Z,15.87
2022-10-02T10:28:18.222Z,15.84
2022-10-02T10:31:39.793Z,16.08
2022-10-02T10:34:38.787Z,16.18
2022-10-02T10:37:26.823Z,16.22
2022-10-02T10:40:26.495Z,16.24
2022-10-02T10:43:22.397Z,16.21
2022-10-02T10:46:19.652Z,16.13
2022-10-02T10:49:11.679Z,16.18
2022-10-02T10:51:48.333Z,16.16
2022-10-02T10:54:48.319Z,16.30
2022-10-02T10:57:32.795Z,16.24
2022-10-02T11:00:22.688Z,16.51
2022-10-02T11:03:15.404Z,16.33
2022-10-02T11:06:23.196Z,16.44
2022-10-02T11:09:16.407Z,16.62
2022-10-02T11:11:57.629Z,16.77
2022-10-02T11:14:34.618Z,16.78
2022-10-02T11:17:40.024Z,16.82
2022-10-02T11:20:32.833Z,16.87
2022-10-02T11:23:24.847Z,16.85
2022-10-02T11:26:06.414Z,16.87
2022-10-02T11:29:07.919Z,16.70
2022-10-02T11:32:01.275Z,16.82
2022-10-02T11:35:00.558Z,16.80
2022-10-02T11:37:54.611Z,16.91
2022-10-02T11:40:40.175Z,16.88
2022-10-02T11:44:01.845Z,16.78
2022-10-02T11:47:11.227Z,16.62
2022-10-02T11:50:04.122Z,16.61
2022-10-02T11:53:00.392Z,16.52
2022-10-02T11:55:38.802Z,16.54
2022-10-02T11:58:24.000Z,16.33
2022-10-02T12:01:17.800Z,16.33
2022-10-02T12:03:55.818Z,16.27
2022-10-02T12:06:37.615Z,16.22
2022-10-02T12:09:14.573Z,16.08
2022-10-02T12:11:49.675Z,16.14
2022-10-02T12:14:29.602Z,16.19
2022-10-02T12:17:09.666Z,16.12
2022-10-02T12:20:20.502Z,16.11
2022-10-02T12:23:15.462Z,16.08
2022-10-02T12:26:08.069Z,16.05
2022-10-02T12:28:47.366Z,15.98
2022-10-02T12:31:25.891Z,15.96
2022-10-02T12:34:01.291Z,15.98
2022-10-02T12:36:51.377Z,16.01
2022-10-02T12:39:37.214Z,16.16
2022-10-02T12:42:26.665Z,16.22
2022-10-02T12:45:28.510Z,16.21
2022-10-02T12:48:12.223Z,16.28
2022-10-02T12:51:17.166Z,16.31
2022-10-02T12:54:25.647Z,16.33
2022-10-02T12:57:38.887Z,16.48
2022-10-02T13:00:19.154Z,16.47
2022-10-02T13:03:31.129Z,16.47
2022-10-02T13:06:42.508Z,16.62
2022-10-02T13:09:29.791Z,16.82
2022-10-02T13:12:17.908Z,16.76
2022-10-02T13:15:11.711Z,16.95
2022-10-02T13:17:47.885Z,17.00
2022-10-02T13:20:28.171Z,17.04
2022-10-02T13:23:03.461Z,17.00
2022-10-02T13:25:46.672Z,16.88
2022-10-02T13:28:30.909Z,16.88
2022-10-02T13:31:07.131Z,17.05
2022-10-02T13:33:57.011Z,17.15
2022-10-02T13:36:35.247Z,17.43
2022-10-02T13:39:15.781Z,17.77
2022-10-02T13:41:57.173Z,18.18
2022-10-02T13:44:35.731Z,18.14
2022-10-02T13:47:27.907Z,18.05
2022-10-02T13:50:15.301Z,18.44
2022-10-02T13:52:56.304Z,18.00
2022-10-02T13:55:27.303Z,18.27
2022-10-02T13:58:22.786Z,18.21
2022-10-02T14:01:04.545Z,17.80
2022-10-02T14:03:45.022Z,17.26
2022-10-02T14:06:20.152Z,17.14
2022-10-02T14:09:03.980Z,17.09
2022-10-02T14:11:45.830Z,17.05
2022-10-02T14:14:26.878Z,16.84
2022-10-02T14:17:04.171Z,17.82
2022-10-02T14:19:51.646Z,18.48
2022-10-02T14:22:40.058Z,19.20
2022-10-02T14:25:33.207Z,19.83
2022-10-02T14:28:27.034Z,20.05
2022-10-02T14:31:25.032Z,20.28
2022-10-02T14:34:19.704Z,20.32
2022-10-02T14:36:56.120Z,20.55
2022-10-02T14:39:35.741Z,20.86
2022-10-02T14:42:25.024Z,20.92
2022-10-02T14:45:22.675Z,20.87
2022-10-02T14:48:06.175Z,21.01
2022-10-02T14:51:04.980Z,21.51
2022-10-02T14:54:01.468Z,21.39
2022-10-02T14:57:08.172Z,22.20
2022-10-02T15:00:05.296Z,22.03
2022-10-02T15:02:48.540Z,22.09
2022-10-02T15:05:39.698Z,21.60
2022-10-02T15:08:15.274Z,20.74
2022-10-02T15:10:46.110Z,21.21
2022-10-02T15:13:26.901Z,21.08
2022-10-02T15:16:18.990Z,20.28
2022-10-02T15:18:57.457Z,19.86
2022-10-02T15:21:32.644Z,19.47
2022-10-02T15:24:28.872Z,19.14
2022-10-02T15:27:05.881Z,18.96
2022-10-02T15:29:45.636Z,18.32
2022-10-02T15:32:39.710Z,18.02
2022-10-02T15:35:26.053Z,17.87
2022-10-02T15:38:27.265Z,17.85
2022-10-02T15:41:05.764Z,18.86
2022-10-02T15:43:45.372Z,17.76
2022-10-02T15:46:25.386Z,17.01
2022-10-02T15:49:02.056Z,16.57
2022-10-02T15:52:02.926Z,16.18
2022-10-02T15:54:43.033Z,15.99
2022-10-02T15:57:39.292Z,15.82
2022-10-02T16:00:14.457Z,15.66
2022-10-02T16:03:13.341Z,15.55
2022-10-02T16:05:50.218Z,15.54
2022-10-02T16:08:58.430Z,15.42
2022-10-02T16:12:17.670Z,15.39
2022-10-02T16:14:55.755Z,15.45
2022-10-02T16:17:37.600Z,15.51
2022-10-02T16:20:23.196Z,15.51
2022-10-02T16:23:04.381Z,15.46
2022-10-02T16:26:04.668Z,15.47
2022-10-02T16:28:48.149Z,15.57
2022-10-02T16:31:40.986Z,15.51
2022-10-02T16:34:28.090Z,15.45
2022-10-02T16:37:03.065Z,15.42
2022-10-02T16:39:56.409Z,15.45
2022-10-02T16:42:40.111Z,15.46
2022-10-02T16:45:39.343Z,15.37
2022-10-02T16:48:16.039Z,15.18
2022-10-02T16:51:06.922Z,15.09
2022-10-02T16:53:41.423Z,14.91
2022-10-02T16:56:14.597Z,14.83
2022-10-02T16:58:49.138Z,14.65
2022-10-02T17:01:26.426Z,14.52
2022-10-02T17:04:22.062Z,14.43
2022-10-02T17:06:58.127Z,14.33
2022-10-02T17:09:34.437Z,14.20
2022-10-02T17:12:11.040Z,14.15
2022-10-02T17:14:46.703Z,14.07
2022-10-02T17:17:22.984Z,14.05
2022-10-02T17:20:03.485Z,13.92
2022-10-02T17:22:39.343Z,13.82
2022-10-02T17:25:17.232Z,13.75
2022-10-02T17:27:53.191Z,13.70
2022-10-02T17:30:25.134Z,13.66
2022-10-02T17:33:07.848Z,13.56
2022-10-02T17:35:49.681Z,13.43
2022-10-02T17:38:46.973Z,13.39
2022-10-02T17:41:38.673Z,13.32
2022-10-02T17:44:16.731Z,13.23
2022-10-02T17:47:13.067Z,13.14
2022-10-02T17:49:53.524Z,13.07
2022-10-02T17:52:49.511Z,13.05
2022-10-02T17:56:03.794Z,13.05
2022-10-02T17:58:41.207Z,12.97
2022-10-02T18:01:19.511Z,12.93
2022-10-02T18:04:09.023Z,12.90
2022-10-02T18:06:42.425Z,12.80
2022-10-02T18:09:50.313Z,12.69
2022-10-02T18:12:38.317Z,12.60
2022-10-02T18:15:49.619Z,12.55
2022-10-02T18:18:30.730Z,12.45
2022-10-02T18:21:09.505Z,12.36
2022-10-02T18:24:07.183Z,12.25
2022-10-02T18:26:49.707Z,12.17
2022-10-02T18:29:34.747Z,12.08
2022-10-02T18:32:28.242Z,12.05
2022-10-02T18:35:16.625Z,11.97
2022-10-02T18:37:57.505Z,11.92
2022-10-02T18:40:30.332Z,11.83
2022-10-02T18:43:21.215Z,11.79
2022-10-02T18:46:00.261Z,11.75
2022-10-02T18:49:10.145Z,11.71
2022-10-02T18:51:57.901Z,11.64
2022-10-02T18:54:31.451Z,11.57
2022-10-02T18:57:21.031Z,11.51
2022-10-02T19:00:04.603Z,11.44
2022-10-02T19:02:43.907Z,11.38
2022-10-02T19:05:26.697Z,11.30
2022-10-02T19:08:08.667Z,11.27
2022-10-02T19:10:43.798Z,11.22
2022-10-02T19:13:23.092Z,11.22
2022-10-02T19:15:54.316Z,11.23
2022-10-02T19:18:24.060Z,11.16
2022-10-02T19:20:57.043Z,11.13
2022-10-02T19:23:30.173Z,11.04
2022-10-02T19:26:03.033Z,11.00
2022-10-02T19:28:33.009Z,10.92
2022-10-02T19:31:06.538Z,10.89
2022-10-02T19:33:43.392Z,10.93
2022-10-02T19:36:18.608Z,10.90
2022-10-02T19:38:52.888Z,10.83
2022-10-02T19:41:23.438Z,10.77
2022-10-02T19:43:59.495Z,10.71
2022-10-02T19:46:38.822Z,10.74
2022-10-02T19:49:08.855Z,10.80
2022-10-02T19:51:45.363Z,10.72
2022-10-02T19:54:19.898Z,10.69
2022-10-02T19:56:48.829Z,10.64
2022-10-02T19:59:20.207Z,10.57
2022-10-02T20:01:53.713Z,10.51
2022-10-02T20:04:23.967Z,10.53
2022-10-02T20:06:56.568Z,10.53
2022-10-02T20:09:31.308Z,10.50
2022-10-02T20:12:05.361Z,10.48
2022-10-02T20:14:40.780Z,10.53
2022-10-02T20:17:10.927Z,10.48
2022-10-02T20:19:43.744Z,10.46
2022-10-02T20:22:24.195Z,10.44
2022-10-02T20:24:58.365Z,10.43
2022-10-02T20:27:37.240Z,10.39
2022-10-02T20:30:12.217Z,10.30
2022-10-02T20:32:48.308Z,10.27
2022-10-02T20:35:21.537Z,10.30
2022-10-02T20:37:52.614Z,10.30
2022-10-02T20:40:25.443Z,10.27
2022-10-02T20:42:59.836Z,10.24
2022-10-02T20:45:36.540Z,10.22
2022-10-02T20:49:07.135Z,10.23
2022-10-02T20:52:14.458Z,10.18
2022-10-02T20:54:51.597Z,10.14
2022-10-02T20:58:07.709Z,10.14
2022-10-02T21:00:53.324Z,10.11
2022-10-02T21:03:42.752Z,10.09
2022-10-02T21:06:53.526Z,10.05
2022-10-02T21:10:03.890Z,9.97
2022-10-02T21:13:12.438Z,10.01
2022-10-02T21:16:17.433Z,10.03
2022-10-02T21:19:05.919Z,9.94
2022-10-02T21:22:01.776Z,10.00
2022-10-02T21:25:00.983Z,10.12
2022-10-02T21:28:02.457Z,10.14
2022-10-02T21:30:42.803Z,10.08
2022-10-02T21:33:16.007Z,10.04
2022-10-02T21:35:52.087Z,9.95
2022-10-02T21:38:35.571Z,9.99
2022-10-02T21:41:48.632Z,9.93
2022-10-02T21:45:03.636Z,9.83
2022-10-02T21:48:11.469Z,9.82
2022-10-02T21:51:07.290Z,9.75
2022-10-02T21:54:13.019Z,9.75
2022-10-02T21:57:15.528Z,9.77
2022-10-02T22:00:14.219Z,9.68
2022-10-02T22:03:22.123Z,9.63
2022-10-02T22:06:08.431Z,9.66
2022-10-02T22:08:54.990Z,9.63
2022-10-02T22:11:34.396Z,9.74
2022-10-02T22:14:09.675Z,9.81
2022-10-02T22:16:49.024Z,9.79
2022-10-02T22:19:31.978Z,9.68
2022-10-02T22:22:13.750Z,9.64
2022-10-02T22:25:04.273Z,9.62
2022-10-02T22:28:04.119Z,9.49
2022-10-02T22:30:42.280Z,9.47
2022-10-02T22:33:33.124Z,9.50
2022-10-02T22:36:34.392Z,9.41
2022-10-02T22:39:07.422Z,9.45
2022-10-02T22:41:39.430Z,9.37
2022-10-02T22:44:13.266Z,9.35
2022-10-02T22:46:50.287Z,9.33
2022-10-02T22:49:27.895Z,9.34
2022-10-02T22:52:03.500Z,9.51
2022-10-02T22:54:39.519Z,9.49
2022-10-02T22:57:15.543Z,9.45
2022-10-02T22:59:50.021Z,9.41
2022-10-02T23:02:24.045Z,9.39
2022-10-02T23:04:57.657Z,9.35
2022-10-02T23:07:31.599Z,9.36
2022-10-02T23:10:03.449Z,9.36
2022-10-02T23:12:38.791Z,9.29
2022-10-02T23:15:28.251Z,9.21
2022-10-02T23:18:00.456Z,9.26
2022-10-02T23:20:34.153Z,9.29
2022-10-02T23:23:12.921Z,9.24
2022-10-02T23:25:47.556Z,9.26
2022-10-02T23:28:19.690Z,9.25
2022-10-02T23:30:53.781Z,9.32
2022-10-02T23:33:27.253Z,9.36
2022-10-02T23:36:04.049Z,9.25
2022-10-02T23:38:42.379Z,9.27
2022-10-02T23:41:35.054Z,9.15
2022-10-02T23:44:13.921Z,9.09
2022-10-02T23:47:00.465Z,9.08
2022-10-02T23:49:35.026Z,9.07
2022-10-02T23:52:24.875Z,9.14
2022-10-02T23:55:08.411Z,9.19
2022-10-02T23:58:08.340Z,9.14
